Time;durP1;ratioP1;P1;durP2;ratioP2;P2;SDS_P1;SDS_P2;PMS_P1;PMS_P2;Temp;Humidity;BMP_temperature;BMP_pressure;BME280_temperature;BME280_humidity;BME280_pressure;Samples;Min_cycle;Max_cycle;Signal;HPM_P1;HPM_P2
2021/04/26 03:02:40;;;;;;;29.70;17.52;;;;;;;2.25;100.00;100402.66;1749748;80;20994;-69
2021/04/26 03:05:12;;;;;;;35.38;19.37;;;;;;;2.61;100.00;100391.91;1757884;80;21172;-69
2021/04/26 03:07:42;;;;;;;42.25;19.55;;;;;;;2.87;100.00;100388.39;1759733;80;21220;-70
2021/04/26 03:10:14;;;;;;;34.80;18.90;;;;;;;3.17;100.00;100389.30;1759254;80;22053;-69
2021/04/26 03:12:49;;;;;;;41.95;19.07;;;;;;;3.55;100.00;100385.98;1758595;80;21073;-71
2021/04/26 03:15:22;;;;;;;33.18;17.35;;;;;;;4.07;100.00;100374.91;1761839;79;21904;-69
2021/04/26 03:17:50;;;;;;;34.03;18.10;;;;;;;4.72;100.00;100369.84;1742059;80;21580;-69
2021/04/26 03:20:20;;;;;;;28.52;17.82;;;;;;;5.48;100.00;100369.55;1735580;80;21352;-69
2021/04/26 03:23:08;;;;;;;31.53;18.27;;;;;;;6.45;100.00;100371.31;1814435;78;22779;-69
2021/04/26 03:25:37;;;;;;;26.62;15.58;;;;;;;7.27;100.00;100366.44;1800735;79;21469;-70
2021/04/26 03:28:05;;;;;;;20.25;13.43;;;;;;;8.18;100.00;100368.09;1778298;79;23476;-70
2021/04/26 03:30:35;;;;;;;18.20;11.08;;;;;;;9.09;100.00;100370.30;1781221;79;20947;-70
2021/04/26 03:33:22;;;;;;;19.80;11.23;;;;;;;10.18;100.00;100373.06;1799677;79;20971;-70
2021/04/26 03:35:55;;;;;;;14.13;9.83;;;;;;;11.38;100.00;100366.30;1795435;79;21278;-70
2021/04/26 03:38:23;;;;;;;15.30;9.50;;;;;;;13.59;82.34;100362.16;1788202;77;21264;-70
2021/04/26 03:40:54;;;;;;;14.37;9.57;;;;;;;13.59;82.34;100362.16;1772906;79;21415;-73
2021/04/26 03:43:23;;;;;;;15.97;9.50;;;;;;;14.61;65.36;100351.70;1788740;79;21754;-69
2021/04/26 03:45:59;;;;;;;13.93;9.03;;;;;;;15.54;54.43;100356.50;1787976;78;20967;-72
2021/04/26 03:48:47;;;;;;;13.70;8.93;;;;;;;16.38;47.82;100348.60;1785146;79;21002;-73
2021/04/26 03:51:30;;;;;;;11.87;9.03;;;;;;;17.12;41.75;100352.00;1830026;77;22890;-72
2021/04/26 03:54:16;;;;;;;13.83;8.67;;;;;;;17.40;39.39;100342.69;1792721;79;20935;-72
2021/04/26 03:56:47;;;;;;;11.30;8.47;;;;;;;17.72;37.47;100345.30;1801020;78;21360;-70
2021/04/26 03:59:16;;;;;;;;;;;;;;;18.11;35.78;100342.28;1734704;80;21031;-72
2021/04/26 04:01:45;;;;;;;12.07;8.50;;;;;;;18.48;34.10;100341.46;1759656;80;20331;-71
2021/04/26 04:04:15;;;;;;;11.47;7.07;;;;;;;18.85;32.90;100336.69;1751784;80;21615;-71
2021/04/26 04:07:01;;;;;;;10.80;7.37;;;;;;;19.32;32.24;100325.08;1712830;82;21054;-72
2021/04/26 04:09:50;;;;;;;9.93;7.20;;;;;;;19.94;30.49;100325.03;1752211;80;21240;-71
2021/04/26 04:12:25;;;;;;;8.80;6.10;;;;;;;20.49;29.74;100330.80;1745760;82;21228;-72
2021/04/26 04:15:08;;;;;;;9.07;6.43;;;;;;;21.06;28.80;100326.41;1774351;80;21053;-70
2021/04/26 04:17:38;;;;;;;10.45;6.58;;;;;;;21.61;26.93;100320.53;1740613;80;21233;-72
2021/04/26 04:20:09;;;;;;;11.37;7.33;;;;;;;21.97;26.68;100325.55;1760374;80;21224;-72
2021/04/26 04:22:40;;;;;;;9.10;6.80;;;;;;;22.50;25.80;100320.23;1759438;80;21151;-71
2021/04/26 04:25:11;;;;;;;10.10;7.47;;;;;;;22.91;25.26;100322.50;1723928;81;21234;-73
2021/04/26 04:27:39;;;;;;;10.30;8.10;;;;;;;23.28;24.30;100320.16;1765617;80;21068;-70
2021/04/26 04:30:11;;;;;;;11.20;8.00;;;;;;;23.36;24.52;100313.51;1768231;80;21205;-70
2021/04/26 04:32:57;;;;;;;9.25;6.90;;;;;;;23.70;24.19;100303.13;1731687;80;21161;-71
2021/04/26 04:35:44;;;;;;;9.58;7.97;;;;;;;24.30;23.62;100304.56;1744785;81;21399;-72
2021/04/26 04:38:18;;;;;;;8.35;7.05;;;;;;;24.71;22.69;100297.19;1761236;80;21149;-72
2021/04/26 04:41:06;;;;;;;8.15;6.03;;;;;;;24.97;21.71;100298.63;1742801;82;21086;-72
2021/04/26 04:43:36;;;;;;;8.25;6.00;;;;;;;25.22;21.45;100301.64;1768184;80;21490;-70
2021/04/26 04:46:06;;;;;;;7.87;5.83;;;;;;;25.56;21.31;100292.81;1755251;80;21205;-70
2021/04/26 04:48:45;;;;;;;9.18;6.20;;;;;;;26.00;20.34;100290.52;1746802;80;22286;-70
2021/04/26 04:51:25;;;;;;;11.77;6.90;;;;;;;26.41;19.86;100282.80;1802470;77;28635;-71
2021/04/26 04:53:56;;;;;;;10.18;7.30;;;;;;;26.71;19.70;100285.34;1721218;83;21062;-71
2021/04/26 04:56:25;;;;;;;;;;;;;;;27.08;19.20;100292.54;1725773;81;21380;-71
2021/04/26 04:58:54;;;;;;;11.95;6.80;;;;;;;27.28;18.96;100289.58;1707247;82;20122;-72
2021/04/26 05:01:23;;;;;;;9.65;7.40;;;;;;;27.49;18.87;100289.22;1715045;81;21065;-72
2021/04/26 05:04:11;;;;;;;10.25;6.50;;;;;;;27.67;18.80;100287.56;1718489;83;20967;-71
2021/04/26 05:06:57;;;;;;;12.18;7.05;;;;;;;27.98;18.54;100286.45;1709858;82;21055;-72
2021/04/26 05:09:45;;;;;;;13.13;7.28;;;;;;;28.17;18.28;100286.34;1699901;81;21387;-72
2021/04/26 05:12:33;;;;;;;9.85;6.97;;;;;;;28.03;18.04;100287.13;1713044;81;21428;-72
2021/04/26 05:15:22;;;;;;;12.82;7.80;;;;;;;27.82;18.07;100289.44;1715652;82;21390;-71
2021/04/26 05:17:52;;;;;;;12.93;7.53;;;;;;;27.75;18.26;100290.91;1722408;81;21133;-72
2021/04/26 05:20:23;;;;;;;14.65;7.58;;;;;;;27.70;18.32;100286.97;1688365;81;21893;-71
2021/04/26 05:22:51;;;;;;;;;;;;;;;27.51;18.19;100291.06;1718112;81;22057;-71
2021/04/26 05:25:19;;;;;;;13.62;7.47;;;;;;;26.87;18.55;100288.06;1733141;81;20317;-71
2021/04/26 05:27:48;;;;;;;12.28;6.55;;;;;;;26.29;19.05;100293.64;1737319;81;21125;-71
2021/04/26 05:30:18;;;;;;;11.00;7.22;;;;;;;26.07;19.21;100283.51;1744277;80;20999;-72
2021/04/26 05:32:47;;;;;;;10.90;8.43;;;;;;;25.88;19.43;100277.57;1685270;82;21548;-72
2021/04/26 05:35:33;;;;;;;10.23;6.50;;;;;;;25.87;19.81;100270.62;1831041;77;24208;-71
2021/04/26 05:38:11;;;;;;;11.95;8.55;;;;;;;25.42;19.31;100271.34;1788678;78;20915;-72
2021/04/26 05:40:41;;;;;;;10.25;7.55;;;;;;;25.07;20.20;100276.94;1796115;79;21332;-72
2021/04/26 05:43:10;;;;;;;9.85;7.22;;;;;;;25.28;20.09;100274.40;1744721;81;20943;-72
2021/04/26 05:45:40;;;;;;;10.13;6.10;;;;;;;25.24;19.79;100271.50;1773611;80;20939;-73
2021/04/26 05:48:10;;;;;;;11.25;5.58;;;;;;;25.18;19.66;100266.48;1738135;80;21065;-72
2021/04/26 05:50:39;;;;;;;8.20;5.42;;;;;;;24.74;19.58;100267.33;1741145;80;21031;-72
2021/04/26 05:53:08;;;;;;;8.25;5.45;;;;;;;24.74;19.58;100267.33;1770072;80;21465;-72
2021/04/26 05:55:36;;;;;;;7.50;5.10;;;;;;;24.43;20.09;100266.14;1767559;80;21046;-72
2021/04/26 05:58:04;;;;;;;7.55;4.65;;;;;;;24.24;19.95;100264.64;1768912;80;21147;-73
2021/04/26 06:00:33;;;;;;;6.85;4.78;;;;;;;23.97;19.92;100268.98;1723063;82;21509;-73
2021/04/26 06:03:04;;;;;;;10.48;5.25;;;;;;;23.64;20.23;100264.25;1765656;80;21639;-72
2021/04/26 06:05:33;;;;;;;7.37;5.03;;;;;;;23.62;20.61;100265.06;1740625;81;22180;-72
2021/04/26 06:08:04;;;;;;;8.63;5.22;;;;;;;23.77;20.07;100265.06;1764153;80;21184;-72
2021/04/26 06:10:33;;;;;;;10.10;4.77;;;;;;;23.84;20.43;100261.58;1740626;80;21150;-72
2021/04/26 06:13:01;;;;;;;10.03;5.20;;;;;;;24.13;20.14;100266.26;1760726;80;21440;-71
2021/04/26 06:15:29;;;;;;;5.75;4.20;;;;;;;24.35;20.03;100260.03;1770845;80;21662;-72
2021/04/26 06:18:15;;;;;;;6.95;4.42;;;;;;;24.45;19.57;100260.02;1769847;80;21569;-72
2021/04/26 06:20:44;;;;;;;4.22;2.87;;;;;;;24.61;19.67;100255.93;1770020;80;21188;-71
2021/04/26 06:23:13;;;;;;;4.00;2.95;;;;;;;25.03;18.16;100252.69;1745442;82;21627;-73
2021/04/26 06:25:42;;;;;;;5.67;3.00;;;;;;;24.99;18.35;100248.45;1753198;80;21141;-73
2021/04/26 06:28:12;;;;;;;5.25;2.92;;;;;;;25.45;17.99;100244.07;1745172;82;21210;-72
2021/04/26 06:30:43;;;;;;;5.22;3.25;;;;;;;26.20;17.12;100238.17;1767393;80;21389;-73
2021/04/26 06:33:15;;;;;;;6.97;3.40;;;;;;;26.72;16.85;100234.81;1764414;80;21201;-72
2021/04/26 06:35:46;;;;;;;6.45;3.92;;;;;;;26.91;16.51;100237.70;1734384;80;21632;-72
2021/04/26 06:38:14;;;;;;;2.75;1.80;;;;;;;26.72;16.72;100234.81;1765611;81;21161;-72
2021/04/26 06:40:43;;;;;;;2.95;1.70;;;;;;;26.66;15.68;100235.42;1740917;80;21785;-72
2021/04/26 06:43:12;;;;;;;2.58;1.65;;;;;;;26.02;15.55;100239.47;1750197;80;22660;-72
2021/04/26 06:45:42;;;;;;;2.50;1.50;;;;;;;25.65;15.68;100239.63;1751359;81;21215;-72
2021/04/26 06:48:14;;;;;;;4.10;1.52;;;;;;;25.13;15.92;100229.19;1756464;81;21169;-73
2021/04/26 06:50:43;;;;;;;2.90;1.40;;;;;;;24.58;16.17;100231.16;1757466;81;21635;-72
2021/04/26 06:53:12;;;;;;;2.50;1.60;;;;;;;24.37;16.09;100218.48;1706064;82;21469;-73
2021/04/26 06:55:41;;;;;;;2.50;1.40;;;;;;;24.23;16.38;100224.40;1740287;81;21258;-72
2021/04/26 06:58:10;;;;;;;2.77;1.60;;;;;;;24.12;16.18;100226.06;1788040;79;21185;-73
2021/04/26 07:00:38;;;;;;;2.37;1.67;;;;;;;23.91;16.34;100225.36;1780702;79;21089;-72
2021/04/26 07:03:07;;;;;;;2.20;1.60;;;;;;;23.91;16.02;100218.17;1766208;79;21197;-73
2021/04/26 07:05:36;;;;;;;2.83;1.60;;;;;;;23.87;16.64;100221.11;1770793;79;21166;-73
2021/04/26 07:08:04;;;;;;;1.82;1.20;;;;;;;24.23;16.63;100220.95;1790959;79;21372;-72
2021/04/26 07:10:35;;;;;;;3.05;2.00;;;;;;;24.53;16.64;100219.21;1733306;80;21219;-73
2021/04/26 07:13:04;;;;;;;3.12;1.60;;;;;;;24.63;16.00;100214.61;1737925;82;21022;-73
2021/04/26 07:15:32;;;;;;;2.95;1.37;;;;;;;24.12;16.28;100209.54;1721016;82;21213;-74
2021/04/26 07:18:00;;;;;;;4.62;1.75;;;;;;;23.81;16.78;100208.88;1720285;82;21202;-72
2021/04/26 07:20:29;;;;;;;3.27;1.52;;;;;;;23.68;16.74;100210.80;1743547;80;21131;-73
2021/04/26 07:23:00;;;;;;;3.60;1.55;;;;;;;23.62;16.71;100215.84;1696998;83;21530;-74
2021/04/26 07:25:28;;;;;;;2.50;1.57;;;;;;;23.57;16.68;100214.53;1733708;81;21113;-73
2021/04/26 07:27:56;;;;;;;1.80;1.20;;;;;;;23.80;16.78;100201.97;1735334;82;21255;-73
2021/04/26 07:30:26;;;;;;;3.15;1.60;;;;;;;24.20;16.53;100197.52;1793309;79;21109;-72
2021/04/26 07:32:54;;;;;;;2.58;1.55;;;;;;;24.47;16.75;100195.27;1720953;80;21181;-73
2021/04/26 07:35:22;;;;;;;2.30;1.30;;;;;;;24.90;16.36;100188.81;1715374;81;21727;-71
2021/04/26 07:37:51;;;;;;;2.65;1.60;;;;;;;25.01;16.22;100190.85;1736952;82;21073;-73
2021/04/26 07:40:19;;;;;;;3.25;1.90;;;;;;;25.09;15.83;100186.24;1727413;82;21124;-72
2021/04/26 07:42:48;;;;;;;4.70;1.67;;;;;;;25.04;15.91;100182.81;1738746;82;21248;-72
2021/04/26 07:45:19;;;;;;;4.15;1.40;;;;;;;25.27;16.00;100191.44;1729648;82;21397;-72
2021/04/26 07:47:49;;;;;;;3.22;1.90;;;;;;;25.08;15.94;100188.66;1711636;81;21303;-73
2021/04/26 07:50:18;;;;;;;;;;;;;;;24.27;16.08;100188.69;1700846;83;21085;-73
2021/04/26 07:52:46;;;;;;;2.63;1.77;;;;;;;23.34;17.04;100191.97;1696891;82;20228;-72
2021/04/26 07:55:14;;;;;;;3.67;1.60;;;;;;;23.05;17.51;100196.52;1728993;82;21216;-71
2021/04/26 07:57:42;;;;;;;5.73;1.63;;;;;;;23.16;17.42;100184.02;1729907;82;21224;-72
2021/04/26 08:00:12;;;;;;;3.17;2.00;;;;;;;23.22;17.16;100190.90;1759514;80;21089;-69
2021/04/26 08:02:40;;;;;;;5.50;2.17;;;;;;;23.29;17.02;100180.25;1748678;79;21082;-73
2021/04/26 08:05:11;;;;;;;2.40;1.50;;;;;;;23.27;17.28;100171.75;1755073;80;21149;-72
2021/04/26 08:07:40;;;;;;;3.93;1.83;;;;;;;23.38;17.26;100172.53;1761800;80;21670;-73
2021/04/26 08:10:10;;;;;;;3.20;1.83;;;;;;;23.68;16.70;100172.22;1768914;80;22255;-73
2021/04/26 08:12:38;;;;;;;4.10;2.07;;;;;;;24.05;16.31;100166.44;1760336;80;21615;-72
2021/04/26 08:15:09;;;;;;;3.03;1.80;;;;;;;23.73;16.11;100169.52;1770875;79;21006;-72
2021/04/26 08:17:38;;;;;;;3.33;2.00;;;;;;;23.18;16.65;100160.59;1760409;80;21250;-72
2021/04/26 08:20:07;;;;;;;3.10;1.80;;;;;;;22.92;16.69;100150.52;1706338;83;21125;-72
2021/04/26 08:22:36;;;;;;;3.40;1.97;;;;;;;22.70;17.36;100153.45;1761442;80;21376;-73
2021/04/26 08:25:08;;;;;;;4.17;2.00;;;;;;;22.40;17.66;100150.23;1768447;79;21225;-70
2021/04/26 08:27:36;;;;;;;3.60;2.10;;;;;;;21.93;18.39;100158.56;1710047;83;22443;-72
2021/04/26 08:30:06;;;;;;;3.33;1.77;;;;;;;21.56;18.17;100151.54;1767377;80;21160;-73
2021/04/26 08:32:35;;;;;;;5.10;2.10;;;;;;;20.85;18.74;100149.73;1712787;83;21184;-73
2021/04/26 08:35:05;;;;;;;4.13;2.17;;;;;;;20.28;19.09;100143.64;1762704;79;21354;-72
2021/04/26 08:37:34;;;;;;;4.50;1.87;;;;;;;20.23;19.54;100142.25;1768757;80;22106;-72
2021/04/26 08:40:03;;;;;;;3.80;1.73;;;;;;;20.29;19.43;100138.61;1769674;80;21196;-73
2021/04/26 08:42:31;;;;;;;3.57;1.90;;;;;;;20.58;19.62;100133.89;1793667;79;21488;-72
2021/04/26 08:45:00;;;;;;;3.50;2.00;;;;;;;21.07;19.73;100128.44;1796304;79;21114;-72
2021/04/26 08:47:30;;;;;;;4.60;2.40;;;;;;;21.83;19.57;100131.48;1786632;79;21138;-71
2021/04/26 08:49:59;;;;;;;4.75;2.27;;;;;;;22.43;18.83;100122.61;1784031;79;21541;-72
2021/04/26 08:52:28;;;;;;;4.13;2.17;;;;;;;22.69;18.35;100123.42;1788111;78;21054;-72
2021/04/26 08:54:58;;;;;;;4.77;2.23;;;;;;;22.85;18.25;100114.11;1771708;79;21125;-72
2021/04/26 08:57:26;;;;;;;6.70;2.87;;;;;;;23.15;18.56;100105.31;1791368;79;21466;-74
2021/04/26 08:59:55;;;;;;;7.33;3.00;;;;;;;23.65;18.01;100102.20;1795766;79;22134;-74
2021/04/26 09:02:23;;;;;;;4.93;2.50;;;;;;;24.15;17.70;100091.02;1784108;78;21595;-73
2021/04/26 09:04:56;;;;;;;5.27;2.70;;;;;;;24.54;17.07;100092.88;1791671;79;21623;-72
2021/04/26 09:07:24;;;;;;;3.77;2.30;;;;;;;24.78;16.98;100084.95;1787456;78;21179;-74
2021/04/26 09:09:53;;;;;;;7.07;2.53;;;;;;;24.96;16.62;100073.03;1787950;78;21214;-74
2021/04/26 09:12:26;;;;;;;5.73;2.77;;;;;;;24.75;17.05;100088.97;1801095;78;21350;-73
2021/04/26 09:14:57;;;;;;;5.37;2.60;;;;;;;24.50;17.13;100076.11;1745747;81;21151;-73
2021/04/26 09:17:44;;;;;;;4.80;2.50;;;;;;;24.50;17.34;100066.00;1749824;80;21153;-72
2021/04/26 09:20:21;;;;;;;4.70;2.53;;;;;;;24.62;17.08;100062.95;1798093;79;20974;-72
2021/04/26 09:22:58;;;;;;;5.03;2.77;;;;;;;24.65;17.47;100057.07;1789401;79;21288;-72
2021/04/26 09:25:36;;;;;;;4.50;2.50;;;;;;;24.60;16.89;100057.13;1734320;81;22479;-73
2021/04/26 09:28:12;;;;;;;5.67;2.93;;;;;;;23.54;17.71;100058.88;1763483;80;21013;-72
2021/04/26 09:30:57;;;;;;;4.33;2.53;;;;;;;22.73;18.61;100059.88;1771255;80;21407;-70
2021/04/26 09:33:37;;;;;;;5.40;2.77;;;;;;;22.41;19.12;100058.33;1772843;80;21985;-73
2021/04/26 09:36:16;;;;;;;4.80;2.47;;;;;;;21.90;19.02;100050.30;1734287;81;21151;-71
2021/04/26 09:38:45;;;;;;;4.53;2.70;;;;;;;21.72;19.42;100041.51;1735598;82;21202;-73
2021/04/26 09:41:28;;;;;;;;;;;;;;;22.01;18.87;100041.30;1757345;80;21195;-72
2021/04/26 09:44:08;;;;;;;6.93;3.30;;;;;;;21.84;19.42;100042.85;1763572;80;20143;-71
2021/04/26 09:46:44;;;;;;;;;;;;;;;21.85;19.68;100044.97;1799565;79;21124;-71
2021/04/26 09:49:26;;;;;;;7.10;3.03;;;;;;;21.89;19.33;100038.08;1791631;79;20239;-72
2021/04/26 09:51:59;;;;;;;4.33;2.40;;;;;;;22.04;19.88;100035.44;1785426;79;22261;-75
2021/04/26 09:54:40;;;;;;;5.27;2.40;;;;;;;21.95;19.39;100035.70;1772844;79;21204;-73
2021/04/26 09:57:09;;;;;;;;;;;;;;;21.57;19.18;100035.09;1778602;79;21105;-72
2021/04/26 09:59:38;;;;;;;6.07;2.50;;;;;;;21.48;19.38;100030.05;1768976;79;20188;-72
2021/04/26 10:02:08;;;;;;;;;;;;;;;21.53;19.69;100036.68;1715908;80;22132;-69
2021/04/26 10:04:37;;;;;;;6.87;2.60;;;;;;;21.42;19.28;100028.42;1769792;80;21371;-74
2021/04/26 10:07:06;;;;;;;9.23;2.67;;;;;;;20.98;19.59;100031.36;1751904;80;21018;-71
2021/04/26 10:09:37;;;;;;;5.83;3.00;;;;;;;20.38;20.30;100024.09;1786660;79;21827;-73
2021/04/26 10:12:10;;;;;;;;;;;;;;;19.75;20.72;100022.19;1728701;81;21258;-74
2021/04/26 10:14:42;;;;;;;5.97;3.30;;;;;;;19.13;21.12;100024.61;1723862;82;20401;-73
2021/04/26 10:17:12;;;;;;;4.80;2.63;;;;;;;18.60;21.34;100020.17;1726998;82;21384;-72
2021/04/26 10:19:49;;;;;;;3.62;2.42;;;;;;;18.37;21.72;100013.23;1751872;81;27088;-73
2021/04/26 10:22:37;;;;;;;5.17;2.53;;;;;;;18.63;21.92;100009.11;1766248;81;21015;-69
2021/04/26 10:25:08;;;;;;;5.10;3.10;;;;;;;19.18;21.85;100005.67;1733587;82;21496;-74
2021/04/26 10:27:40;;;;;;;5.20;3.07;;;;;;;19.72;21.24;100001.53;1760793;81;21208;-72
2021/04/26 10:30:14;;;;;;;4.25;2.50;;;;;;;19.99;21.02;99990.41;1763340;81;21270;-74
2021/04/26 10:33:05;;;;;;;4.87;2.90;;;;;;;20.31;20.59;99988.30;1732100;81;21143;-75
2021/04/26 10:35:48;;;;;;;6.65;2.87;;;;;;;20.77;20.98;99985.44;1738247;81;21128;-73
2021/04/26 10:38:46;;;;;;;5.30;3.30;;;;;;;21.45;19.98;99974.87;1733255;81;21141;-73
2021/04/26 10:41:52;;;;;;;4.53;2.40;;;;;;;21.93;19.33;99968.81;1732158;81;21185;-74
2021/04/26 10:44:47;;;;;;;4.13;2.57;;;;;;;22.29;18.76;99963.00;1732178;81;21346;-72
2021/04/26 10:47:30;;;;;;;4.17;2.60;;;;;;;22.15;18.76;99959.30;1768878;79;22462;-73
2021/04/26 10:50:17;;;;;;;5.17;2.70;;;;;;;22.20;19.08;99961.96;1775424;79;21169;-70
2021/04/26 10:52:49;;;;;;;4.47;2.60;;;;;;;22.23;18.51;99960.61;1790488;79;21026;-73
2021/04/26 10:55:25;;;;;;;4.73;2.50;;;;;;;22.19;18.71;99962.21;1791070;79;21587;-73
2021/04/26 10:57:59;;;;;;;4.53;2.53;;;;;;;22.28;18.97;99955.31;1794640;79;21188;-73
2021/04/26 11:00:42;;;;;;;6.73;2.80;;;;;;;22.53;18.64;99937.19;1797427;79;21467;-73
2021/04/26 11:03:19;;;;;;;3.97;2.43;;;;;;;22.62;18.81;99945.42;1776511;79;21065;-72
2021/04/26 11:05:49;;;;;;;4.57;2.70;;;;;;;22.78;18.88;99940.31;1785758;78;21579;-72
2021/04/26 11:08:35;;;;;;;4.12;2.85;;;;;;;23.08;18.79;99943.41;1793266;79;21125;-73
2021/04/26 11:11:22;;;;;;;8.13;4.83;;;;;;;23.29;18.32;99949.40;1723270;82;22125;-72
2021/04/26 11:13:58;;;;;;;4.20;2.63;;;;;;;23.26;18.04;99947.28;1724305;82;21102;-73
2021/04/26 11:16:41;;;;;;;4.40;2.73;;;;;;;22.47;18.18;99944.39;1721399;81;21195;-74
2021/04/26 11:19:11;;;;;;;4.03;2.50;;;;;;;21.41;18.71;99941.98;1728801;81;21504;-71
2021/04/26 11:21:47;;;;;;;4.70;2.77;;;;;;;20.44;19.69;99933.56;1732372;81;21129;-72
2021/04/26 11:24:38;;;;;;;5.43;3.30;;;;;;;20.04;20.26;99941.52;1727302;81;21297;-75
2021/04/26 11:27:17;;;;;;;3.70;2.25;;;;;;;20.14;20.85;99927.55;1768841;79;21200;-73
2021/04/26 11:29:52;;;;;;;6.93;4.20;;;;;;;20.29;20.21;99930.30;1780693;79;21136;-73
2021/04/26 11:32:22;;;;;;;4.77;2.87;;;;;;;20.40;20.69;99913.95;1769381;79;21556;-72
2021/04/26 11:34:59;;;;;;;4.15;2.50;;;;;;;20.58;20.41;99912.23;1784704;79;21188;-72
2021/04/26 11:37:29;;;;;;;5.20;2.50;;;;;;;20.45;20.42;99913.97;1789173;79;22110;-72
2021/04/26 11:39:59;;;;;;;5.47;2.70;;;;;;;20.11;20.57;99911.64;1779576;78;21078;-73
2021/04/26 11:42:30;;;;;;;6.90;3.03;;;;;;;19.92;21.40;99903.83;1712374;80;21223;-72
2021/04/26 11:45:01;;;;;;;3.85;2.47;;;;;;;20.07;21.56;99898.65;1708134;82;21493;-74
2021/04/26 11:47:30;;;;;;;5.65;2.85;;;;;;;20.03;20.89;99900.22;1720105;82;21185;-72
2021/04/26 11:50:00;;;;;;;4.13;2.70;;;;;;;19.53;21.24;99901.89;1754746;80;21202;-72
2021/04/26 12:01:08;;;;;;;8.35;3.40;;;;;;;18.98;22.10;99883.91;1785949;79;21022;-70
2021/04/26 12:03:54;;;;;;;8.33;3.20;;;;;;;19.12;22.40;99869.25;1786552;79;21256;-71
2021/04/26 12:06:24;;;;;;;12.17;3.07;;;;;;;19.41;22.11;99873.77;1791072;79;21413;-71
2021/04/26 12:08:52;;;;;;;5.07;2.70;;;;;;;19.61;21.58;99861.25;1733781;81;21571;-72
2021/04/26 12:11:22;;;;;;;5.10;2.60;;;;;;;19.80;21.70;99859.58;1734150;81;21574;-73
2021/04/26 12:14:11;;;;;;;5.77;2.30;;;;;;;19.85;21.42;99858.28;1728780;81;21232;-72
2021/04/26 12:16:40;;;;;;;5.83;2.67;;;;;;;19.74;21.94;99855.31;1731088;81;21550;-71
2021/04/26 12:19:08;;;;;;;3.83;2.73;;;;;;;19.87;21.49;99848.25;1733981;81;22099;-72
2021/04/26 12:21:37;;;;;;;4.60;2.23;;;;;;;19.92;22.17;99848.28;1737335;81;21232;-72
2021/04/26 12:24:09;;;;;;;9.30;2.80;;;;;;;19.98;21.29;99847.28;1729461;81;21140;-73
2021/04/26 12:26:37;;;;;;;4.13;2.40;;;;;;;19.89;21.61;99840.34;1734963;81;21189;-71
2021/04/26 12:29:05;;;;;;;5.33;2.97;;;;;;;19.73;21.32;99843.13;1719270;81;21499;-71
2021/04/26 12:31:34;;;;;;;5.50;3.00;;;;;;;19.45;21.77;99839.18;1707707;81;22302;-72
2021/04/26 12:34:07;;;;;;;5.00;2.40;;;;;;;19.33;21.74;99830.63;1732529;81;21560;-72
2021/04/26 12:36:36;;;;;;;3.90;2.73;;;;;;;19.33;21.96;99833.80;1721721;82;21573;-71
2021/04/26 12:39:05;;;;;;;4.83;2.70;;;;;;;19.26;21.82;99831.88;1715626;81;21600;-70
2021/04/26 12:41:40;;;;;;;5.20;2.60;;;;;;;19.17;22.08;99832.33;1662965;83;21575;-70
2021/04/26 12:44:09;;;;;;;4.43;2.50;;;;;;;19.01;22.34;99829.77;1720603;81;21214;-71
2021/04/26 12:46:40;;;;;;;9.47;3.00;;;;;;;18.75;22.62;99827.38;1721187;81;21264;-73
2021/04/26 12:49:18;;;;;;;3.92;2.10;;;;;;;18.55;22.90;99827.39;1727042;81;21212;-73
2021/04/26 12:51:47;;;;;;;4.43;2.50;;;;;;;18.50;22.69;99825.22;1742498;79;21210;-73
2021/04/26 12:54:16;;;;;;;4.27;2.40;;;;;;;18.47;22.90;99825.98;1752389;79;21120;-72
2021/04/26 12:56:57;;;;;;;11.20;3.70;;;;;;;18.41;22.74;99820.88;1712899;82;21930;-72
2021/04/26 12:59:47;;;;;;;7.10;2.70;;;;;;;18.32;23.11;99819.72;1765411;79;21161;-70
2021/04/26 13:02:28;;;;;;;9.00;4.47;;;;;;;18.30;23.38;99815.22;1753441;80;21110;-72
2021/04/26 13:04:58;;;;;;;9.07;4.47;;;;;;;18.30;23.37;99813.38;1745793;79;21539;-71
2021/04/26 13:07:27;;;;;;;7.70;3.10;;;;;;;18.32;23.93;99817.08;1764013;81;26900;-71
2021/04/26 13:10:07;;;;;;;4.40;2.60;;;;;;;18.32;23.76;99817.87;1684210;82;22847;-71
2021/04/26 13:12:36;;;;;;;8.13;3.00;;;;;;;17.94;23.75;99810.77;1751832;80;21600;-72
2021/04/26 13:15:30;;;;;;;4.93;2.80;;;;;;;17.94;23.75;99810.77;1724161;82;21651;-71
2021/04/26 13:18:22;;;;;;;4.80;3.00;;;;;;;17.85;24.07;99812.23;1753528;81;21220;-70
2021/04/26 13:20:59;;;;;;;6.23;2.97;;;;;;;17.75;24.27;99804.95;1717891;81;21177;-73
2021/04/26 13:23:34;;;;;;;6.80;3.13;;;;;;;17.69;24.42;99813.28;1769488;79;22061;-72
2021/04/26 13:26:05;;;;;;;6.40;3.10;;;;;;;17.54;24.69;99802.51;1765469;79;21243;-71
2021/04/26 13:28:34;;;;;;;7.55;3.40;;;;;;;17.38;25.19;99801.96;1711817;82;21607;-74
2021/04/26 13:31:04;;;;;;;11.77;3.50;;;;;;;17.24;25.22;99797.54;1754374;80;21489;-71
2021/04/26 13:33:32;;;;;;;5.00;3.00;;;;;;;17.11;25.20;99807.04;1693966;82;21145;-71
2021/04/26 13:36:01;;;;;;;5.67;3.33;;;;;;;17.00;25.41;99806.05;1765760;79;21374;-71
2021/04/26 13:38:31;;;;;;;4.40;2.67;;;;;;;16.88;25.35;99802.68;1785798;79;21575;-71
2021/04/26 13:40:59;;;;;;;4.37;2.50;;;;;;;16.70;25.42;99801.78;1787380;79;21193;-73
2021/04/26 13:43:27;;;;;;;4.20;2.67;;;;;;;16.50;25.55;99798.77;1788971;79;21184;-71
2021/04/26 13:45:56;;;;;;;7.13;3.20;;;;;;;16.35;25.87;99799.77;1796062;79;21145;-71
2021/04/26 13:48:24;;;;;;;7.00;2.80;;;;;;;16.27;26.37;99797.78;1797066;79;22598;-72
2021/04/26 13:50:53;;;;;;;7.17;4.00;;;;;;;16.27;26.58;99806.19;1786614;79;21224;-71
2021/04/26 13:53:22;;;;;;;6.93;3.43;;;;;;;16.23;26.31;99797.17;1785571;79;21256;-70
2021/04/26 13:55:50;;;;;;;5.07;3.57;;;;;;;16.17;26.36;99790.98;1795362;79;21184;-70
2021/04/26 13:58:19;;;;;;;7.50;4.13;;;;;;;16.13;26.57;99783.80;1783266;79;21580;-72
2021/04/26 14:00:47;;;;;;;5.40;3.10;;;;;;;16.05;26.56;99778.38;1768818;79;21366;-70
2021/04/26 14:03:17;;;;;;;10.87;3.83;;;;;;;15.98;26.99;99776.38;1789881;78;21030;-70
2021/04/26 14:05:45;;;;;;;10.70;4.53;;;;;;;15.93;27.17;99769.19;1774124;79;21117;-71
2021/04/26 14:08:15;;;;;;;7.87;3.50;;;;;;;15.91;27.59;99775.69;1769684;79;21074;-72
2021/04/26 14:10:45;;;;;;;7.33;3.00;;;;;;;15.84;27.24;99772.41;1777966;79;22158;-71
2021/04/26 14:13:13;;;;;;;8.87;3.60;;;;;;;15.81;27.53;99775.77;1759364;80;21182;-73
2021/04/26 14:15:44;;;;;;;6.77;3.13;;;;;;;15.77;27.56;99768.05;1747023;80;21600;-71
2021/04/26 14:18:12;;;;;;;7.17;2.93;;;;;;;15.75;27.85;99777.98;1756839;80;21070;-72
2021/04/26 14:20:42;;;;;;;10.33;3.80;;;;;;;15.70;27.82;99766.05;1757126;80;22564;-70
2021/04/26 14:23:11;;;;;;;8.13;3.43;;;;;;;15.66;28.02;99766.74;1734651;82;21206;-70
2021/04/26 14:25:41;;;;;;;7.53;2.95;;;;;;;15.60;28.21;99770.23;1736677;81;21207;-73
2021/04/26 14:28:11;;;;;;;6.77;2.73;;;;;;;15.47;28.25;99771.27;1725222;82;21185;-72
2021/04/26 14:30:40;;;;;;;7.83;3.20;;;;;;;15.33;28.77;99768.83;1726487;82;23276;-73
2021/04/26 14:33:09;;;;;;;7.93;4.37;;;;;;;15.26;29.11;99766.81;1751103;81;21224;-70
2021/04/26 14:35:39;;;;;;;5.23;2.53;;;;;;;15.23;29.48;99769.92;1746339;81;21812;-71
2021/04/26 14:38:08;;;;;;;9.00;3.13;;;;;;;15.22;29.63;99771.44;1732706;82;22935;-70
2021/04/26 14:40:36;;;;;;;11.73;3.43;;;;;;;15.17;29.75;99766.87;1789730;79;21965;-70
2021/04/26 14:43:04;;;;;;;10.33;2.90;;;;;;;15.13;29.72;99762.30;1742688;80;21878;-71
2021/04/26 14:45:32;;;;;;;10.07;4.30;;;;;;;15.07;30.13;99767.41;1767010;80;21880;-72
2021/04/26 14:48:01;;;;;;;7.63;4.37;;;;;;;15.01;30.28;99767.52;1779075;78;21842;-72
2021/04/26 14:50:29;;;;;;;6.23;3.97;;;;;;;14.90;30.57;99764.34;1800652;79;22099;-71
2021/04/26 14:52:57;;;;;;;10.63;4.60;;;;;;;14.77;30.39;99756.95;1796222;78;21701;-71
2021/04/26 14:55:25;;;;;;;11.93;5.13;;;;;;;14.65;30.90;99760.02;1813500;78;22262;-71
2021/04/26 14:57:53;;;;;;;9.63;4.47;;;;;;;14.56;31.22;99752.17;1726819;80;21752;-73
2021/04/26 15:00:23;;;;;;;8.67;4.83;;;;;;;14.48;31.30;99762.94;1785285;78;21920;-71
2021/04/26 15:02:51;;;;;;;8.80;4.70;;;;;;;14.41;31.35;99756.97;1791536;79;22532;-71
2021/04/26 15:05:21;;;;;;;14.00;5.10;;;;;;;14.33;31.40;99760.69;1745826;80;21576;-68